Time;durP1;ratioP1;P1;durP2;ratioP2;P2;SDS_P1;SDS_P2;PMS_P1;PMS_P2;Temp;Humidity;BMP_temperature;BMP_pressure;BME280_temperature;BME280_humidity;BME280_pressure;Samples;Min_cycle;Max_cycle;Signal;HPM_P1;HPM_P2
2021/06/08 00:01:27;;;;;;;1.42;1.20;;;22.70;50.40;;;;;;4937409;29;20042;-84
2021/06/08 00:03:53;;;;;;;1.38;1.27;;;22.70;50.40;;;;;;4945312;29;20015;-84
2021/06/08 00:06:19;;;;;;;1.90;1.30;;;22.70;50.50;;;;;;4921461;29;20042;-84
2021/06/08 00:08:44;;;;;;;1.55;1.20;;;22.70;50.50;;;;;;4935114;29;20043;-84
2021/06/08 00:11:10;;;;;;;1.60;1.25;;;22.60;50.60;;;;;;4940175;29;20289;-84
2021/06/08 00:13:36;;;;;;;1.30;1.13;;;22.60;50.60;;;;;;4933108;29;20036;-84
2021/06/08 00:16:02;;;;;;;1.17;1.08;;;22.50;50.50;;;;;;4934090;29;20032;-85
2021/06/08 00:18:28;;;;;;;1.23;1.10;;;22.50;50.60;;;;;;4918431;29;20035;-85
2021/06/08 00:20:54;;;;;;;1.40;1.05;;;22.50;50.60;;;;;;4914558;29;20035;-84
2021/06/08 00:23:20;;;;;;;1.55;1.15;;;22.40;50.60;;;;;;4929430;29;20118;-84
2021/06/08 00:25:46;;;;;;;1.50;1.20;;;22.40;50.70;;;;;;4911820;29;20037;-84
2021/06/08 00:28:11;;;;;;;1.55;1.30;;;22.40;50.70;;;;;;4947145;29;20030;-84
2021/06/08 00:30:37;;;;;;;1.73;1.33;;;22.40;50.70;;;;;;4906492;29;20039;-84
2021/06/08 00:33:04;;;;;;;1.95;1.30;;;22.30;50.70;;;;;;4946016;29;20035;-84
2021/06/08 00:35:33;;;;;;;1.27;1.17;;;22.30;50.80;;;;;;4939788;29;20054;-84
2021/06/08 00:38:01;;;;;;;1.85;1.20;;;22.30;50.80;;;;;;4932750;29;20650;-83
2021/06/08 00:40:28;;;;;;;1.67;1.40;;;22.20;50.80;;;;;;4917846;29;20126;-84
2021/06/08 00:42:54;;;;;;;1.35;1.25;;;22.20;50.90;;;;;;4936057;29;20482;-84
2021/06/08 00:45:21;;;;;;;1.90;1.20;;;22.10;50.80;;;;;;4965063;28;20101;-84
2021/06/08 00:47:46;;;;;;;2.30;1.42;;;22.10;50.90;;;;;;4975796;28;20039;-84
2021/06/08 00:50:13;;;;;;;1.92;1.30;;;22.10;50.90;;;;;;4953373;28;20038;-85
2021/06/08 00:52:39;;;;;;;1.33;1.23;;;22.10;51.00;;;;;;4972479;28;20074;-84
2021/06/08 00:55:07;;;;;;;1.40;1.30;;;22.00;51.00;;;;;;4972376;28;20039;-83
2021/06/08 00:57:33;;;;;;;1.40;1.30;;;22.00;51.00;;;;;;4967915;28;20390;-84
2021/06/08 00:59:59;;;;;;;3.15;1.30;;;22.00;51.10;;;;;;4975785;28;20039;-85
2021/06/08 01:02:24;;;;;;;1.40;1.30;;;22.00;51.10;;;;;;4972650;28;20027;-84
2021/06/08 01:04:50;;;;;;;1.70;1.20;;;21.90;51.10;;;;;;4961559;28;20028;-85
2021/06/08 01:07:16;;;;;;;3.63;1.50;;;21.90;51.20;;;;;;4954410;28;20110;-85
2021/06/08 01:09:42;;;;;;;1.40;1.30;;;21.90;51.20;;;;;;4943372;28;20077;-84
2021/06/08 01:12:08;;;;;;;1.83;1.40;;;21.80;51.20;;;;;;4973147;28;20043;-84
2021/06/08 01:14:35;;;;;;;1.70;1.40;;;21.80;51.30;;;;;;4991859;28;20122;-84
2021/06/08 01:17:00;;;;;;;2.78;1.70;;;21.80;51.30;;;;;;4942168;28;20027;-85
2021/06/08 01:19:26;;;;;;;1.50;1.40;;;21.80;51.40;;;;;;4959569;28;20042;-83
2021/06/08 01:21:52;;;;;;;2.13;1.60;;;21.70;51.40;;;;;;4969129;28;20514;-85
2021/06/08 01:24:21;;;;;;;1.75;1.50;;;21.70;51.40;;;;;;4943565;28;20186;-84
2021/06/08 01:26:48;;;;;;;1.60;1.50;;;21.60;51.50;;;;;;4940922;28;20043;-87
2021/06/08 01:29:14;;;;;;;4.20;1.85;;;21.60;51.50;;;;;;4990810;28;20034;-85
2021/06/08 01:31:41;;;;;;;2.45;1.80;;;21.60;51.60;;;;;;4927374;28;20067;-84
2021/06/08 01:34:07;;;;;;;2.35;1.60;;;21.50;51.50;;;;;;4971413;28;20035;-84
2021/06/08 01:36:38;;;;;;;1.90;1.60;;;21.50;51.60;;;;;;4969768;28;20031;-85
2021/06/08 01:39:05;;;;;;;1.67;1.58;;;21.50;51.70;;;;;;4967261;28;20365;-85
2021/06/08 01:41:47;;;;;;;1.60;1.50;;;21.50;51.70;;;;;;4951469;28;20057;-84
2021/06/08 01:44:13;;;;;;;2.15;1.70;;;21.40;51.70;;;;;;4945652;28;20035;-85
2021/06/08 01:46:39;;;;;;;2.38;1.70;;;21.40;51.70;;;;;;4984726;28;20054;-84
2021/06/08 01:49:05;;;;;;;1.52;1.42;;;21.30;51.70;;;;;;4986977;28;20058;-85
2021/06/08 01:51:47;;;;;;;2.05;1.42;;;21.30;51.80;;;;;;4973148;28;20067;-83
2021/06/08 01:54:49;;;;;;;1.73;1.60;;;21.30;51.90;;;;;;4972317;28;20038;-84
2021/06/08 01:57:46;;;;;;;1.92;1.67;;;21.20;52.00;;;;;;4972239;28;20030;-82
2021/06/08 02:00:33;;;;;;;2.35;1.75;;;21.20;51.90;;;;;;4937443;28;20047;-83
2021/06/08 02:03:04;;;;;;;2.00;1.60;;;21.20;52.10;;;;;;4947090;28;20042;-82
2021/06/08 02:05:50;;;;;;;2.00;1.75;;;21.20;52.10;;;;;;4971849;28;20038;-82
2021/06/08 02:08:16;;;;;;;1.80;1.60;;;21.10;52.20;;;;;;4972195;28;20046;-83
2021/06/08 02:10:56;;;;;;;2.20;1.80;;;21.10;52.20;;;;;;4954377;28;20409;-83
2021/06/08 02:13:41;;;;;;;2.85;1.95;;;21.00;52.20;;;;;;4987474;28;20066;-83
2021/06/08 02:16:45;;;;;;;1.98;1.67;;;21.00;52.30;;;;;;4974166;28;20030;-83
2021/06/08 02:19:13;;;;;;;3.13;1.95;;;21.00;52.40;;;;;;4933887;28;20038;-83
2021/06/08 02:21:42;;;;;;;2.60;1.98;;;21.00;52.30;;;;;;4948073;28;20031;-83
2021/06/08 02:24:11;;;;;;;2.95;2.22;;;20.90;52.40;;;;;;4956808;28;20037;-82
2021/06/08 02:26:41;;;;;;;2.67;2.00;;;20.90;52.40;;;;;;4962548;28;20024;-84
2021/06/08 02:29:08;;;;;;;2.45;2.05;;;20.90;52.50;;;;;;4976445;28;20090;-83
2021/06/08 02:31:35;;;;;;;2.47;2.08;;;20.90;52.50;;;;;;4946994;28;20480;-82
2021/06/08 02:34:03;;;;;;;2.17;1.95;;;20.80;52.50;;;;;;4960022;28;20043;-83
2021/06/08 02:36:29;;;;;;;3.10;2.30;;;20.80;52.60;;;;;;4952132;28;20039;-82
2021/06/08 02:38:57;;;;;;;2.95;2.30;;;20.80;52.60;;;;;;4965092;28;20051;-83
2021/06/08 02:41:24;;;;;;;3.25;2.20;;;20.70;52.60;;;;;;4989768;28;20082;-83
2021/06/08 02:43:52;;;;;;;3.70;2.50;;;20.70;52.60;;;;;;4954204;28;20033;-83
2021/06/08 02:46:18;;;;;;;2.42;1.98;;;20.70;52.70;;;;;;4943301;28;20047;-83
2021/06/08 02:48:57;;;;;;;2.67;2.10;;;20.60;52.60;;;;;;4967842;28;20027;-85
2021/06/08 02:51:29;;;;;;;2.58;2.20;;;20.60;52.70;;;;;;4987855;28;20031;-87
2021/06/08 02:54:04;;;;;;;3.67;2.60;;;20.60;52.80;;;;;;4968376;28;20043;-83
2021/06/08 02:56:31;;;;;;;2.83;2.45;;;20.50;52.70;;;;;;4969008;28;20035;-83
2021/06/08 02:58:57;;;;;;;3.50;2.45;;;20.50;52.80;;;;;;4968573;28;20026;-83
2021/06/08 03:01:23;;;;;;;5.22;2.63;;;20.50;52.80;;;;;;4970451;28;20121;-83
2021/06/08 03:03:54;;;;;;;2.75;2.38;;;20.50;52.80;;;;;;4955950;28;20042;-83
2021/06/08 03:06:35;;;;;;;2.55;2.20;;;20.40;52.90;;;;;;4967976;28;20027;-83
2021/06/08 03:09:03;;;;;;;3.17;2.60;;;20.40;52.90;;;;;;4959450;28;20491;-84
2021/06/08 03:11:43;;;;;;;2.92;2.47;;;20.40;53.00;;;;;;4979969;28;20062;-84
2021/06/08 03:14:14;;;;;;;3.08;2.55;;;20.30;53.00;;;;;;4970680;28;20038;-84
2021/06/08 03:16:47;;;;;;;3.95;2.80;;;20.30;53.00;;;;;;4987603;28;20033;-83
2021/06/08 03:19:17;;;;;;;2.90;2.25;;;20.30;53.10;;;;;;4963768;28;20126;-84
2021/06/08 03:21:48;;;;;;;3.83;2.50;;;20.20;53.10;;;;;;4970913;28;20035;-84
2021/06/08 03:24:15;;;;;;;3.50;2.88;;;20.20;53.10;;;;;;4978346;28;20059;-84
2021/06/08 03:26:43;;;;;;;4.00;3.10;;;20.20;53.10;;;;;;4969371;28;20485;-83
2021/06/08 03:29:11;;;;;;;3.55;2.70;;;20.20;53.20;;;;;;4988406;28;20081;-83
2021/06/08 03:31:42;;;;;;;3.63;2.88;;;20.20;53.20;;;;;;4955186;28;20031;-84
2021/06/08 03:34:14;;;;;;;3.95;2.70;;;20.10;53.30;;;;;;4978916;28;20081;-84
2021/06/08 03:36:49;;;;;;;3.60;2.90;;;20.10;53.30;;;;;;4958085;28;20034;-83
2021/06/08 03:39:16;;;;;;;3.90;2.80;;;20.00;53.30;;;;;;4974335;28;20049;-84
2021/06/08 03:41:44;;;;;;;3.42;2.78;;;20.00;53.30;;;;;;4969686;28;20467;-83
2021/06/08 03:44:13;;;;;;;3.58;2.65;;;20.00;53.40;;;;;;4989086;28;20066;-84
2021/06/08 03:46:39;;;;;;;3.67;2.97;;;19.90;53.40;;;;;;4956144;28;20054;-84
2021/06/08 03:49:05;;;;;;;4.10;3.10;;;19.90;53.40;;;;;;4943924;28;20061;-84
2021/06/08 03:51:31;;;;;;;4.72;3.13;;;19.90;53.50;;;;;;4984710;28;20047;-85
2021/06/08 03:53:58;;;;;;;4.13;2.95;;;19.90;53.50;;;;;;4971471;28;21701;-84
2021/06/08 03:56:25;;;;;;;3.75;2.85;;;19.90;53.50;;;;;;4971803;28;20042;-83
2021/06/08 03:58:54;;;;;;;4.60;2.95;;;19.80;53.50;;;;;;4950361;28;20086;-84
2021/06/08 04:01:21;;;;;;;4.35;3.30;;;19.80;53.60;;;;;;4975572;28;20042;-83
2021/06/08 04:03:51;;;;;;;3.47;2.92;;;19.80;53.60;;;;;;4968380;28;20035;-84
2021/06/08 04:06:19;;;;;;;3.75;2.78;;;19.70;53.60;;;;;;4969252;28;20026;-84
2021/06/08 04:08:45;;;;;;;3.95;2.97;;;19.70;53.60;;;;;;4972810;28;20035;-84
2021/06/08 04:11:11;;;;;;;4.00;2.75;;;19.70;53.70;;;;;;4948601;28;20417;-84
2021/06/08 04:13:40;;;;;;;3.40;2.65;;;19.70;53.70;;;;;;4968864;28;20039;-84
2021/06/08 04:16:09;;;;;;;3.80;2.90;;;19.70;53.80;;;;;;4953492;28;20053;-85
2021/06/08 04:18:36;;;;;;;3.97;2.83;;;19.60;53.80;;;;;;4932916;28;20043;-84
2021/06/08 04:21:03;;;;;;;3.90;3.03;;;19.60;53.80;;;;;;4961943;28;20041;-86
2021/06/08 04:23:29;;;;;;;4.13;3.15;;;19.60;53.80;;;;;;4913717;29;20118;-83
2021/06/08 04:25:57;;;;;;;3.83;3.08;;;19.60;53.90;;;;;;4970169;28;20034;-84
2021/06/08 04:28:25;;;;;;;3.08;2.70;;;19.50;53.90;;;;;;4961710;28;20030;-84
2021/06/08 04:30:52;;;;;;;3.58;2.92;;;19.50;53.90;;;;;;4975211;28;20046;-84
2021/06/08 04:33:23;;;;;;;3.85;2.70;;;19.50;53.90;;;;;;4963345;28;20357;-83
2021/06/08 04:35:49;;;;;;;3.90;2.80;;;19.50;54.00;;;;;;4952390;28;20473;-83
2021/06/08 04:38:17;;;;;;;4.43;3.38;;;19.50;54.00;;;;;;4940612;28;20388;-84
2021/06/08 04:40:44;;;;;;;3.88;3.30;;;19.40;54.00;;;;;;4964679;28;20126;-84
2021/06/08 04:43:10;;;;;;;3.95;3.30;;;19.40;54.10;;;;;;4967382;28;20031;-88
2021/06/08 04:45:36;;;;;;;4.25;3.33;;;19.40;54.10;;;;;;4972536;28;20062;-85
2021/06/08 04:48:03;;;;;;;3.95;3.00;;;19.40;54.20;;;;;;4956859;28;20045;-84
2021/06/08 04:50:28;;;;;;;4.53;3.17;;;19.40;54.20;;;;;;4965027;28;20504;-85
2021/06/08 04:52:57;;;;;;;4.70;3.33;;;19.40;54.30;;;;;;4961377;28;20046;-86
2021/06/08 04:55:24;;;;;;;4.38;3.53;;;19.40;54.30;;;;;;4964291;28;20475;-85
2021/06/08 04:57:51;;;;;;;4.20;3.30;;;19.40;54.30;;;;;;4977767;28;20551;-84
2021/06/08 05:00:20;;;;;;;4.35;3.55;;;19.40;54.40;;;;;;4956861;28;20046;-85
2021/06/08 05:02:52;;;;;;;4.63;3.30;;;19.30;54.30;;;;;;4966292;28;20025;-85
2021/06/08 05:05:24;;;;;;;5.03;3.67;;;19.30;54.40;;;;;;4973331;28;20020;-87
2021/06/08 05:08:10;;;;;;;4.38;3.25;;;19.30;54.40;;;;;;4973257;28;20026;-90
2021/06/08 05:11:08;;;;;;;4.13;3.10;;;19.30;54.50;;;;;;4966443;28;20065;-89
2021/06/08 05:13:35;;;;;;;3.88;3.15;;;19.30;54.60;;;;;;4945709;28;20130;-88
2021/06/08 05:16:02;;;;;;;4.28;3.38;;;19.30;54.50;;;;;;4966636;28;20043;-86
2021/06/08 05:18:29;;;;;;;4.13;3.22;;;19.30;54.50;;;;;;4967400;28;20023;-86
2021/06/08 05:20:56;;;;;;;4.78;3.75;;;19.30;54.60;;;;;;4956520;28;20480;-83
2021/06/08 05:23:22;;;;;;;4.00;3.25;;;19.30;54.60;;;;;;4969000;28;20037;-87
2021/06/08 05:25:52;;;;;;;4.53;3.40;;;19.30;54.60;;;;;;4953525;28;20062;-85
2021/06/08 05:28:19;;;;;;;4.65;3.30;;;19.30;54.70;;;;;;4988501;28;20050;-86
2021/06/08 05:30:46;;;;;;;4.55;3.20;;;19.30;54.70;;;;;;4972750;28;20054;-87
2021/06/08 05:33:18;;;;;;;5.00;3.50;;;19.30;54.70;;;;;;4970316;28;20030;-86
2021/06/08 05:35:44;;;;;;;4.22;3.30;;;19.30;54.80;;;;;;4982757;28;20031;-84
2021/06/08 05:38:10;;;;;;;4.35;3.30;;;19.30;54.70;;;;;;4984055;28;20078;-87
2021/06/08 05:40:37;;;;;;;3.97;3.10;;;19.30;54.70;;;;;;4964912;28;20035;-87
2021/06/08 05:43:03;;;;;;;4.20;3.28;;;19.30;54.70;;;;;;4961842;28;20030;-88
2021/06/08 05:45:31;;;;;;;3.92;3.13;;;19.30;54.80;;;;;;4972011;28;20059;-88
2021/06/08 05:48:00;;;;;;;4.55;3.42;;;19.30;54.80;;;;;;4936454;28;20035;-86
2021/06/08 05:50:29;;;;;;;3.60;3.00;;;19.20;54.70;;;;;;4928339;28;20053;-87
2021/06/08 05:52:55;;;;;;;3.65;2.97;;;19.30;54.70;;;;;;4950208;28;20169;-88
2021/06/08 05:55:26;;;;;;;4.00;3.17;;;19.30;54.80;;;;;;4956463;28;20702;-85
2021/06/08 05:57:56;;;;;;;4.70;3.03;;;19.30;54.80;;;;;;4934716;29;20035;-85
2021/06/08 06:00:23;;;;;;;4.38;3.00;;;19.30;54.80;;;;;;4956609;28;20031;-84
2021/06/08 06:02:49;;;;;;;3.83;2.72;;;19.30;54.80;;;;;;4957021;28;20035;-84
2021/06/08 06:05:16;;;;;;;4.07;3.03;;;19.30;54.80;;;;;;4952230;28;20035;-86
2021/06/08 06:07:43;;;;;;;3.88;3.08;;;19.30;54.80;;;;;;4932365;29;20035;-87
2021/06/08 06:10:10;;;;;;;3.50;2.80;;;19.30;54.80;;;;;;4967389;28;20074;-88
2021/06/08 06:12:37;;;;;;;4.35;3.03;;;19.30;54.80;;;;;;4951404;28;20036;-87
2021/06/08 06:15:05;;;;;;;3.10;2.50;;;19.30;54.70;;;;;;4960690;28;20487;-86
2021/06/08 06:17:36;;;;;;;3.47;2.50;;;19.30;54.80;;;;;;4942028;28;20387;-87
2021/06/08 06:20:07;;;;;;;2.85;2.50;;;19.30;54.80;;;;;;4957630;28;20041;-87
2021/06/08 06:22:37;;;;;;;3.47;2.50;;;19.30;54.80;;;;;;4944167;28;20435;-86
2021/06/08 06:25:09;;;;;;;3.97;2.70;;;19.30;54.80;;;;;;4955856;28;20479;-87
2021/06/08 06:27:36;;;;;;;3.92;2.60;;;19.30;54.80;;;;;;4974274;28;20109;-87
2021/06/08 06:30:04;;;;;;;3.65;2.33;;;19.30;54.70;;;;;;4972503;28;20050;-88
2021/06/08 06:32:30;;;;;;;4.00;2.70;;;19.30;54.70;;;;;;4955015;28;20055;-85
2021/06/08 06:34:56;;;;;;;3.03;2.33;;;19.40;54.80;;;;;;4963759;28;20117;-93
2021/06/08 06:37:26;;;;;;;2.55;2.20;;;19.30;54.70;;;;;;4971072;28;20054;-86
2021/06/08 06:39:58;;;;;;;3.35;2.42;;;19.30;54.80;;;;;;4939792;29;20476;-87
2021/06/08 06:42:27;;;;;;;3.40;2.30;;;19.40;54.80;;;;;;4970622;28;20065;-89
2021/06/08 06:44:54;;;;;;;3.25;2.45;;;19.40;54.80;;;;;;4945063;28;20052;-88
2021/06/08 06:47:20;;;;;;;3.58;2.50;;;19.40;54.80;;;;;;4986558;28;20118;-94
2021/06/08 06:49:46;;;;;;;2.95;2.30;;;19.40;54.80;;;;;;4968159;28;20039;-92
2021/06/08 06:52:12;;;;;;;3.33;2.35;;;19.40;54.70;;;;;;4966850;28;20030;-88
2021/06/08 06:54:39;;;;;;;2.63;2.17;;;19.50;54.80;;;;;;4954618;28;20031;-88
2021/06/08 06:57:05;;;;;;;2.63;2.10;;;19.50;54.80;;;;;;4965112;28;20054;-90
2021/06/08 06:59:32;;;;;;;2.65;2.03;;;19.50;54.80;;;;;;4958817;28;20066;-88
2021/06/08 07:01:58;;;;;;;2.60;2.22;;;19.50;54.80;;;;;;4941211;28;20033;-88
2021/06/08 07:04:25;;;;;;;2.88;2.28;;;19.50;54.80;;;;;;4947371;29;20066;-88
2021/06/08 07:06:52;;;;;;;2.58;2.05;;;19.50;54.80;;;;;;4947922;28;20027;-88
2021/06/08 07:09:25;;;;;;;3.25;2.40;;;19.50;54.80;;;;;;4946170;28;20038;-86
2021/06/08 07:11:56;;;;;;;3.22;2.08;;;19.60;54.90;;;;;;4973240;28;20120;-86
2021/06/08 07:14:23;;;;;;;3.40;2.20;;;19.60;54.90;;;;;;4942406;28;20041;-88
2021/06/08 07:16:53;;;;;;;2.50;2.00;;;19.60;54.80;;;;;;4970477;28;20035;-87
2021/06/08 07:19:20;;;;;;;3.03;2.28;;;19.50;54.80;;;;;;4958854;28;20169;-88
2021/06/08 07:21:46;;;;;;;2.75;2.13;;;19.60;54.80;;;;;;4956175;28;20031;-85
2021/06/08 07:24:13;;;;;;;3.70;2.15;;;19.60;54.70;;;;;;4923720;28;20042;-88
2021/06/08 07:26:40;;;;;;;2.28;1.77;;;19.70;54.80;;;;;;4921786;28;20027;-89
2021/06/08 07:29:09;;;;;;;2.25;1.83;;;19.70;54.70;;;;;;4949451;28;20388;-88
2021/06/08 07:32:14;;;;;;;2.70;1.92;;;19.70;54.70;;;;;;4955734;28;20098;-86
2021/06/08 07:34:48;;;;;;;2.75;1.90;;;19.80;55.40;;;;;;4964245;28;20035;-88
2021/06/08 07:37:19;;;;;;;2.30;1.80;;;19.80;55.20;;;;;;4939356;28;20093;-88
2021/06/08 07:39:54;;;;;;;2.40;2.00;;;19.90;54.60;;;;;;4952613;28;20299;-91
2021/06/08 07:42:49;;;;;;;3.08;1.92;;;19.90;54.50;;;;;;4973044;28;20113;-90
2021/06/08 07:45:19;;;;;;;2.05;1.65;;;20.00;54.50;;;;;;4956177;28;20039;-89
2021/06/08 07:47:49;;;;;;;2.67;1.98;;;20.10;55.00;;;;;;4951884;28;20034;-89
2021/06/08 07:50:16;;;;;;;2.80;1.80;;;20.10;54.30;;;;;;4970456;28;20053;-89
2021/06/08 07:52:42;;;;;;;2.38;1.65;;;20.20;54.30;;;;;;4963123;28;20033;-85
2021/06/08 07:55:09;;;;;;;1.83;1.73;;;20.30;54.30;;;;;;4940756;28;20023;-87
2021/06/08 07:57:38;;;;;;;2.17;1.70;;;20.30;54.20;;;;;;4950828;28;20027;-90
2021/06/08 08:00:06;;;;;;;2.75;1.80;;;20.40;54.10;;;;;;4944611;28;20027;-90
2021/06/08 08:02:38;;;;;;;3.67;1.83;;;20.50;54.20;;;;;;4963315;28;20027;-90
2021/06/08 08:05:09;;;;;;;2.05;1.60;;;20.60;54.10;;;;;;4938273;28;20031;-89
2021/06/08 08:07:35;;;;;;;1.90;1.52;;;20.60;54.00;;;;;;4956530;28;20036;-89
2021/06/08 08:10:02;;;;;;;2.58;1.80;;;20.70;54.00;;;;;;4956283;28;20129;-92
2021/06/08 08:12:35;;;;;;;1.48;1.33;;;20.80;54.00;;;;;;4929120;28;20047;-90
2021/06/08 08:15:07;;;;;;;2.05;1.65;;;20.90;54.00;;;;;;4942149;28;20034;-92
2021/06/08 08:17:34;;;;;;;2.08;1.58;;;21.00;53.90;;;;;;4941232;28;20034;-92
2021/06/08 08:20:06;;;;;;;1.83;1.50;;;21.00;53.80;;;;;;4950357;28;20019;-93
2021/06/08 08:22:33;;;;;;;1.70;1.48;;;21.10;53.80;;;;;;4949815;28;20026;-88
2021/06/08 08:24:59;;;;;;;1.67;1.50;;;21.20;53.80;;;;;;4961133;28;20027;-93
2021/06/08 08:27:26;;;;;;;2.22;1.73;;;21.30;53.70;;;;;;4948267;28;20030;-91
2021/06/08 08:29:52;;;;;;;1.80;1.50;;;21.40;53.70;;;;;;4937306;28;20038;-89
2021/06/08 08:32:18;;;;;;;2.45;1.67;;;21.50;53.70;;;;;;4961335;28;20045;-93
2021/06/08 08:34:44;;;;;;;2.20;1.55;;;21.60;53.80;;;;;;4934603;28;20027;-92
2021/06/08 08:37:10;;;;;;;1.92;1.40;;;21.60;53.70;;;;;;4955419;28;20082;-91
2021/06/08 08:39:36;;;;;;;2.08;1.58;;;21.70;53.70;;;;;;4962399;28;20055;-91
2021/06/08 08:42:05;;;;;;;1.77;1.38;;;21.80;53.70;;;;;;4964890;28;20153;-89
2021/06/08 08:44:32;;;;;;;1.45;1.35;;;21.90;53.70;;;;;;4955190;28;20031;-88
2021/06/08 08:46:58;;;;;;;1.45;1.33;;;22.00;53.70;;;;;;4962744;28;20054;-88
2021/06/08 08:49:26;;;;;;;1.40;1.30;;;22.10;53.60;;;;;;4965854;28;20061;-87
2021/06/08 08:51:53;;;;;;;1.42;1.33;;;22.20;53.70;;;;;;4959142;28;20042;-87
2021/06/08 08:54:20;;;;;;;1.92;1.40;;;22.30;54.30;;;;;;4957209;28;20490;-87
2021/06/08 08:56:48;;;;;;;2.17;1.63;;;22.40;53.60;;;;;;4990489;28;20070;-91
2021/06/08 08:59:16;;;;;;;1.50;1.35;;;22.50;53.60;;;;;;4974251;28;20031;-91
2021/06/08 09:01:46;;;;;;;1.70;1.40;;;22.60;53.60;;;;;;4948117;28;20035;-90
2021/06/08 09:04:13;;;;;;;2.45;1.80;;;22.60;53.50;;;;;;4963970;28;20051;-91
2021/06/08 09:06:39;;;;;;;1.80;1.40;;;22.80;53.50;;;;;;4918415;28;20035;-90
2021/06/08 09:09:07;;;;;;;1.52;1.30;;;22.90;53.40;;;;;;4960730;28;20062;-89
2021/06/08 09:11:38;;;;;;;1.50;1.30;;;22.90;53.30;;;;;;4925369;28;20121;-89
2021/06/08 09:14:04;;;;;;;2.20;1.70;;;23.10;53.30;;;;;;4957829;28;20046;-89
2021/06/08 09:16:31;;;;;;;1.75;1.30;;;23.20;53.40;;;;;;4926508;28;20078;-90
2021/06/08 09:18:57;;;;;;;1.15;1.08;;;23.30;53.40;;;;;;4960643;28;20019;-90
2021/06/08 09:21:26;;;;;;;1.75;1.42;;;23.40;53.40;;;;;;4947340;28;20043;-90
2021/06/08 09:23:51;;;;;;;2.58;1.50;;;23.40;53.30;;;;;;4960144;28;20034;-90
2021/06/08 09:26:18;;;;;;;1.65;1.35;;;23.50;53.20;;;;;;4925452;28;20066;-90
2021/06/08 09:28:45;;;;;;;2.88;1.50;;;23.60;53.20;;;;;;4952981;28;20042;-88
2021/06/08 09:31:14;;;;;;;1.33;1.23;;;23.80;53.10;;;;;;4942133;28;20038;-88
2021/06/08 09:33:45;;;;;;;1.83;1.38;;;23.80;52.90;;;;;;4962057;28;20015;-90
2021/06/08 09:36:14;;;;;;;1.40;1.30;;;23.90;52.90;;;;;;4960300;28;20026;-91
2021/06/08 09:38:53;;;;;;;2.25;1.58;;;24.00;52.70;;;;;;4977332;28;20035;-88
2021/06/08 09:41:32;;;;;;;2.35;1.50;;;24.10;52.70;;;;;;4954426;28;20038;-87
2021/06/08 09:44:19;;;;;;;2.00;1.73;;;24.20;52.60;;;;;;4956280;28;20041;-87
2021/06/08 09:46:53;;;;;;;1.48;1.38;;;24.30;52.60;;;;;;4933667;28;20097;-88
2021/06/08 09:49:32;;;;;;;1.48;1.38;;;24.40;52.40;;;;;;4964025;28;20089;-87
2021/06/08 09:52:06;;;;;;;2.28;1.50;;;24.50;52.30;;;;;;4954412;28;20034;-87
2021/06/08 09:54:47;;;;;;;2.30;1.65;;;24.60;52.20;;;;;;4958761;28;20495;-86
2021/06/08 09:57:29;;;;;;;2.33;1.60;;;24.70;52.20;;;;;;4971996;28;20031;-84
2021/06/08 10:00:00;;;;;;;1.60;1.50;;;24.80;52.10;;;;;;4975160;28;20023;-85
2021/06/08 10:02:48;;;;;;;1.67;1.42;;;24.90;52.00;;;;;;4954506;28;20040;-84
2021/06/08 10:05:28;;;;;;;1.70;1.58;;;25.00;52.00;;;;;;4956683;28;20030;-85
2021/06/08 10:08:09;;;;;;;2.67;1.80;;;25.10;52.00;;;;;;4952778;28;20034;-85
2021/06/08 10:10:40;;;;;;;2.47;1.70;;;25.20;51.90;;;;;;4956958;28;20040;-89
2021/06/08 10:13:09;;;;;;;2.20;1.52;;;25.30;51.80;;;;;;4956186;28;20132;-87
2021/06/08 10:15:53;;;;;;;1.98;1.50;;;25.40;51.80;;;;;;4971489;28;20027;-86
2021/06/08 10:18:19;;;;;;;2.17;1.63;;;25.50;51.80;;;;;;4950276;28;20030;-86
2021/06/08 10:20:51;;;;;;;1.95;1.63;;;25.60;51.70;;;;;;4946144;28;20081;-86
2021/06/08 10:23:24;;;;;;;2.03;1.67;;;25.60;51.60;;;;;;4961066;28;20082;-85
2021/06/08 10:25:52;;;;;;;2.78;1.88;;;25.80;51.60;;;;;;4941739;28;20532;-87
2021/06/08 10:28:19;;;;;;;1.98;1.70;;;25.80;51.50;;;;;;4944040;28;20062;-86
2021/06/08 10:30:47;;;;;;;1.95;1.63;;;25.90;51.40;;;;;;4957650;28;20038;-87
2021/06/08 10:33:13;;;;;;;2.15;1.70;;;26.00;51.40;;;;;;4943716;28;20142;-87
2021/06/08 10:35:40;;;;;;;1.65;1.48;;;26.00;51.20;;;;;;4949914;28;20479;-85
2021/06/08 10:38:07;;;;;;;2.47;1.77;;;26.20;51.20;;;;;;4967240;28;20091;-88
2021/06/08 10:40:36;;;;;;;1.95;1.70;;;26.20;51.10;;;;;;4957274;28;20070;-84
2021/06/08 10:43:03;;;;;;;2.03;1.52;;;26.30;51.10;;;;;;4976911;28;20479;-88
2021/06/08 10:45:37;;;;;;;1.98;1.77;;;26.40;51.10;;;;;;4963708;28;20077;-83
2021/06/08 10:48:19;;;;;;;2.20;1.55;;;26.50;51.10;;;;;;4935933;29;20118;-85
2021/06/08 10:50:50;;;;;;;2.20;1.52;;;26.60;51.10;;;;;;4940812;28;20031;-88
2021/06/08 10:53:53;;;;;;;1.65;1.52;;;26.70;50.90;;;;;;4973196;28;20492;-86
2021/06/08 10:56:26;;;;;;;1.75;1.58;;;26.70;50.90;;;;;;4947654;28;20042;-86
2021/06/08 10:58:57;;;;;;;2.08;1.70;;;26.90;50.90;;;;;;4971343;28;20382;-89
2021/06/08 11:01:40;;;;;;;1.95;1.50;;;26.90;50.80;;;;;;4971181;28;20031;-89
2021/06/08 11:04:16;;;;;;;1.60;1.50;;;27.00;50.80;;;;;;4961933;28;20115;-88
2021/06/08 11:06:47;;;;;;;1.70;1.55;;;27.10;50.70;;;;;;4946487;28;20026;-89
2021/06/08 11:09:15;;;;;;;2.08;1.83;;;27.10;50.60;;;;;;4958257;28;20027;-90
2021/06/08 11:11:47;;;;;;;2.15;1.88;;;27.20;50.60;;;;;;4971341;28;20039;-88
2021/06/08 11:14:32;;;;;;;1.75;1.58;;;27.30;50.60;;;;;;4957174;28;20031;-89
2021/06/08 11:16:58;;;;;;;;;;;27.30;50.60;;;;;;4963485;28;20059;-89
2021/06/08 11:19:50;;;;;;;1.85;1.42;;;27.30;50.50;;;;;;4964142;28;19910;-90
2021/06/08 11:22:19;;;;;;;1.73;1.52;;;27.40;50.50;;;;;;4976196;28;20053;-90
2021/06/08 11:24:49;;;;;;;1.65;1.55;;;27.50;50.50;;;;;;4950256;28;20046;-91
2021/06/08 11:27:17;;;;;;;2.08;1.75;;;27.50;50.60;;;;;;4966715;28;20035;-94
2021/06/08 11:29:46;;;;;;;1.98;1.45;;;27.50;50.60;;;;;;4959268;28;20029;-92
2021/06/08 11:32:31;;;;;;;2.00;1.70;;;27.60;50.60;;;;;;4973104;28;20089;-91
2021/06/08 11:35:33;;;;;;;2.22;1.60;;;27.60;50.80;;;;;;4954902;28;20023;-88
2021/06/08 11:38:05;;;;;;;2.30;1.60;;;27.60;50.70;;;;;;4955651;28;20027;-88
2021/06/08 11:40:37;;;;;;;2.05;1.60;;;27.70;50.80;;;;;;4978207;28;20038;-88
2021/06/08 11:43:23;;;;;;;2.17;1.73;;;27.70;50.90;;;;;;4968487;28;20042;-88
2021/06/08 11:46:04;;;;;;;1.52;1.42;;;27.70;51.00;;;;;;4936824;28;20046;-89
2021/06/08 11:48:35;;;;;;;3.05;1.80;;;27.70;51.00;;;;;;4948131;29;20118;-88
2021/06/08 11:51:23;;;;;;;2.45;1.67;;;27.80;51.10;;;;;;4923237;29;20039;-88
2021/06/08 11:54:00;;;;;;;1.95;1.73;;;27.80;51.20;;;;;;4950875;29;20592;-88
2021/06/08 11:56:45;;;;;;;1.85;1.70;;;27.80;51.30;;;;;;4930325;29;20024;-88
2021/06/08 11:59:11;;;;;;;;;;;27.80;51.30;;;;;;4920472;29;20456;-89
2021/06/08 12:01:52;;;;;;;1.83;1.50;;;27.80;51.30;;;;;;4947902;29;19918;-90
2021/06/08 12:04:18;;;;;;;2.28;1.63;;;27.90;51.50;;;;;;4935691;29;20023;-89
2021/06/08 12:07:09;;;;;;;2.50;1.85;;;27.90;51.50;;;;;;4950799;29;20106;-92
2021/06/08 12:09:46;;;;;;;2.40;1.88;;;27.80;51.70;;;;;;4955435;28;20027;-87
2021/06/08 12:12:17;;;;;;;2.50;1.80;;;27.90;51.70;;;;;;4950108;29;20043;-88
2021/06/08 12:14:52;;;;;;;1.88;1.60;;;27.90;51.70;;;;;;4922300;29;20081;-84
2021/06/08 12:17:18;;;;;;;3.53;1.80;;;27.90;51.70;;;;;;4951821;29;20062;-90
2021/06/08 12:19:44;;;;;;;2.13;1.80;;;27.90;51.70;;;;;;4937893;29;20023;-85
2021/06/08 12:22:22;;;;;;;2.38;1.95;;;27.90;51.70;;;;;;4951255;29;20039;-91
2021/06/08 12:24:53;;;;;;;2.33;1.95;;;27.90;51.70;;;;;;4936738;29;20028;-91
2021/06/08 12:27:19;;;;;;;2.35;2.13;;;27.90;51.70;;;;;;4941569;29;20470;-85
2021/06/08 12:29:52;;;;;;;3.63;2.75;;;28.00;51.50;;;;;;4940264;29;20019;-91
2021/06/08 12:32:18;;;;;;;3.60;3.03;;;27.90;50.40;;;;;;4957572;28;20035;-87
2021/06/08 12:34:48;;;;;;;3.67;2.95;;;27.90;49.80;;;;;;4941023;29;20024;-88
2021/06/08 12:37:24;;;;;;;3.70;2.90;;;27.90;49.50;;;;;;4942084;29;20027;-86
2021/06/08 12:39:56;;;;;;;3.90;2.78;;;27.80;49.20;;;;;;4941885;29;20387;-88
2021/06/08 12:42:23;;;;;;;4.07;3.20;;;27.80;49.20;;;;;;4957570;29;20107;-89
2021/06/08 12:44:52;;;;;;;3.50;2.75;;;27.70;48.90;;;;;;4956527;29;20090;-89
2021/06/08 12:47:24;;;;;;;3.90;2.83;;;27.70;48.70;;;;;;4951919;29;20079;-91
2021/06/08 12:49:54;;;;;;;3.67;2.72;;;27.70;48.50;;;;;;4932223;29;20040;-90
2021/06/08 12:52:25;;;;;;;4.57;2.92;;;27.60;48.10;;;;;;4918711;29;20046;-90
2021/06/08 12:54:51;;;;;;;4.00;3.00;;;27.60;48.10;;;;;;4913509;29;20028;-90
2021/06/08 12:57:26;;;;;;;4.10;3.10;;;27.60;48.10;;;;;;4951627;29;20082;-86
2021/06/08 13:00:11;;;;;;;4.22;2.92;;;27.60;48.30;;;;;;4936291;29;20035;-84
2021/06/08 13:02:37;;;;;;;3.70;3.00;;;27.50;48.10;;;;;;4942726;29;20040;-85
2021/06/08 13:05:08;;;;;;;3.58;2.80;;;27.50;48.10;;;;;;4932736;29;20097;-85